Aviation Digital Data Service (ADDS)

Output produced by METARs form (1941 UTC 25 March 2017)
found at http://www.aviationweather.gov/adds/metars/
 
SLCO 251900Z 27004KT 9999 BKN020 FEW023CB 31/25 Q1009
TAF SLCO 251600Z 2518/2618 30010KT 9999 SCT017 BKN080 TX32/2519Z TN23 /2610Z 
     PROB40 
     TEMPO 2519/2522 8000 SHRA FEW017 FEW020CB BKN080 
     BECMG 2500/2603 00000KT SCT015 BKN070
       
SLCB 251900Z 03008KT 9999 SCT027 FEW030CB SCT080 25/09 Q1020
TAF SLCB 251600Z 2518/2618 14010KT 9999 FEW027 FEW033TCU TX27/2519Z TN13/2610Z 
     BECMG 2522/2600 00000KT SCT080 
     BECMG 2611/2613 SCT025 
     PROB30 
     TEMPO 2616/2618 29010KT SCT027 FEW030CB
       
SLLP 251900Z VRB02KT 9999 SCT016 FEW017CB BKN200 14/03 Q1035
TAF SLLP 252200Z 2500/2524 08005KT 4000E VCFG FEW002 SCT013 FEW017CB BKN070 TX15/2520Z TN03/2510Z 
     PROB30 
     TEMPO 2507/2511 6000 RA 
     BECMG 2512/2515 13008KT 9999 NSW SCT015 FEW017CB SCT070 
     TEMPO 2518/2522 6000 TSRA
       
SLOR 251900Z 34011KT 9999 SCT020 FEW023CB BKN200 17/08 Q1032
SLPO 251400Z 00000KT 9999 NSC 11/04 Q1037
SLPS 251900Z 00000KT 9999 SCT020 BKN200 35/25 Q1007
TAF SLPS 251600Z 2518/2618 06008KT 9999 SCT020 TX35/2519Z TN22/2610Z 
     TEMPO 2519/2523 8000 SHRA FEW030CB 
     BECMG 2523/2601 00000KT SCT020 
     BECMG 2614/2616 06008KT 9999 SCT020
       
SLRI 251900Z 36012KT 9999 SCT017 FEW020CB 32/24 Q1009
SLSA 251900Z 34009KT 9999 SCT017 32/23 Q1009
SLET 251900Z 32012G22KT 9999 FEW015 BKN020 BKN200 30/23 Q1008
TAF SLET 251600Z 2518/2618 33015KT 9999 BKN020 FEW027TCU TX32/2519Z TN22/2610Z 
     PROB30 
     TEMPO 2519/2523 6000 SHRA 
     BECMG 2523/2601 33008KT 
     TEMPO 2609/2612 8000 RA SCT005 BKN020 
     BECMG 2615/2618 33015G25KT 9999 SCT020 FEW027TCU
       
SLVR 251900Z 34014G24KT 9999 BKN020 BKN200 31/23 Q1009
TAF SLVR 251600Z 2518/2618 34015KT 9999 BKN020 FEW027TCU TX32/2519Z TN22/2610Z 
     PROB30 
     TEMPO 2519/2523 6000 SHRA 
     BECMG 2523/2601 33008KT 
     TEMPO 2609/2612 8000 RA SCT005 BKN020 
     BECMG 2615/2618 33015G25KT 9999 SCT020 FEW027TCU
       
SLTJ 251900Z 15010KT 9999 FEW030 FEW036CB BKN200 24/15 Q1014
TAF SLTJ 251600Z 2518/2618 13010KT 9999 SCT030 SCT070 TX24/2519Z TN14 /2610Z 
     TEMPO 2519/2521 FEW033CB 
     BECMG 2523/2601 00000KT SCT023 
     BECMG 2615/2617 SCT030
       
SLTR 251900Z 27005KT 9999 FEW017 SCT200 32/26 Q1009
TAF SLTR 251600Z 2518/2618 33009KT 9999 SCT017 SCT080 TX34/2519Z TN23 /2610Z 
     TEMPO 2520/2523 8000 SHRA FEW017 FEW020CB BKN080 
     BECMG 2500/ 2602 00000KT SCT013 BKN070
       
SLVM 251900Z 00000KT 9999 BKN020 29/24 Q1007
SLYA 251900Z 36006KT 9999 BKN015 OVC070 27/23 Q1008